createdAt,value
2023-01-06T00:00:30.649Z,-18.55
2023-01-06T00:03:01.874Z,-19.56
2023-01-06T00:05:32.928Z,-19.06
2023-01-06T00:08:01.466Z,-20.40
2023-01-06T00:10:33.212Z,-18.79
2023-01-06T00:13:01.458Z,-20.88
2023-01-06T00:15:30.707Z,-20.95
2023-01-06T00:17:59.022Z,-20.77
2023-01-06T00:20:27.328Z,-19.65
2023-01-06T00:22:55.406Z,-21.19
2023-01-06T00:25:25.040Z,-21.00
2023-01-06T00:27:53.285Z,-18.85
2023-01-06T00:30:21.016Z,-21.19
2023-01-06T00:32:48.876Z,-21.35
2023-01-06T00:35:18.809Z,-19.85
2023-01-06T00:37:46.668Z,-20.39
2023-01-06T00:40:15.312Z,-21.11
2023-01-06T00:42:43.626Z,-21.04
2023-01-06T00:45:11.735Z,-19.55
2023-01-06T00:47:39.586Z,-19.07
2023-01-06T00:50:08.561Z,-20.82
2023-01-06T00:52:41.126Z,-21.48
2023-01-06T00:55:09.649Z,-20.19
2023-01-06T00:57:41.007Z,-18.59
2023-01-06T01:00:10.904Z,-17.12
2023-01-06T01:02:38.976Z,-18.66
2023-01-06T01:05:07.230Z,-20.34
2023-01-06T01:07:36.871Z,-17.35
2023-01-06T01:10:05.056Z,-19.65
2023-01-06T01:12:32.911Z,-20.79
2023-01-06T01:15:01.024Z,-20.50
2023-01-06T01:17:32.829Z,-21.72
2023-01-06T01:20:04.194Z,-21.14
2023-01-06T01:22:33.625Z,-20.43
2023-01-06T01:25:02.072Z,-21.53
2023-01-06T01:27:32.805Z,-17.88
2023-01-06T01:30:00.668Z,-19.96
2023-01-06T01:32:31.324Z,-20.45
2023-01-06T01:34:59.349Z,-18.50
2023-01-06T01:37:27.184Z,-21.34
2023-01-06T01:39:55.429Z,-18.11
2023-01-06T01:42:23.393Z,-17.54
2023-01-06T01:45:05.079Z,-21.45
2023-01-06T01:47:48.068Z,-21.52
2023-01-06T01:50:46.281Z,-17.41
2023-01-06T01:53:21.508Z,-19.37
2023-01-06T01:55:53.436Z,-20.94
2023-01-06T01:58:41.837Z,-20.18
2023-01-06T02:01:11.701Z,-20.09
2023-01-06T02:03:42.501Z,-20.81
2023-01-06T02:06:17.478Z,-19.00
2023-01-06T02:08:51.303Z,-20.40
2023-01-06T02:11:19.699Z,-20.76
2023-01-06T02:14:19.862Z,-19.56
2023-01-06T02:17:11.262Z,-21.25
2023-01-06T02:20:01.131Z,-16.58
2023-01-06T02:22:30.883Z,-19.98
2023-01-06T02:25:36.610Z,-21.02
2023-01-06T02:28:49.061Z,-21.94
2023-01-06T02:31:46.354Z,-17.86
2023-01-06T02:34:23.245Z,-22.33
2023-01-06T02:37:17.459Z,-22.68
2023-01-06T02:39:46.925Z,-19.97
2023-01-06T02:42:43.854Z,-19.22
2023-01-06T02:45:35.633Z,-18.49
2023-01-06T02:48:27.552Z,-20.33
2023-01-06T02:51:39.758Z,-22.31
2023-01-06T02:54:34.270Z,-22.00
2023-01-06T02:57:14.688Z,-18.30
2023-01-06T03:00:19.853Z,-17.21
2023-01-06T03:02:56.315Z,-16.31
2023-01-06T03:05:26.447Z,-18.43
2023-01-06T03:07:57.897Z,-21.80
2023-01-06T03:10:29.338Z,-20.23
2023-01-06T03:13:20.203Z,-20.24
2023-01-06T03:15:49.321Z,-22.18
2023-01-06T03:18:17.512Z,-22.14
2023-01-06T03:20:47.344Z,-22.41
2023-01-06T03:23:15.758Z,-21.20
2023-01-06T03:25:44.195Z,-22.22
2023-01-06T03:28:12.937Z,-19.09
2023-01-06T03:31:11.380Z,-20.06
2023-01-06T03:34:11.174Z,-22.68
2023-01-06T03:37:02.198Z,-22.02
2023-01-06T03:40:10.788Z,-21.81
2023-01-06T03:43:16.504Z,-23.14
2023-01-06T03:46:17.102Z,-22.18
2023-01-06T03:49:03.479Z,-22.41
2023-01-06T03:52:08.846Z,-21.55
2023-01-06T03:54:37.105Z,-22.00
2023-01-06T03:57:16.346Z,-23.36
2023-01-06T03:59:53.455Z,-22.88
2023-01-06T04:02:22.814Z,-22.57
2023-01-06T04:05:23.756Z,-23.27
2023-01-06T04:07:55.327Z,-22.78
2023-01-06T04:10:24.150Z,-21.38
2023-01-06T04:12:53.332Z,-22.14
2023-01-06T04:15:26.784Z,-22.48
2023-01-06T04:17:55.759Z,-21.46
2023-01-06T04:20:28.121Z,-20.45
2023-01-06T04:22:58.364Z,-22.27
2023-01-06T04:25:26.778Z,-22.86
2023-01-06T04:27:55.051Z,-19.85
2023-01-06T04:30:23.683Z,-21.50
2023-01-06T04:32:54.475Z,-22.10
2023-01-06T04:35:22.388Z,-22.80
2023-01-06T04:37:50.672Z,-23.03
2023-01-06T04:40:18.506Z,-23.20
2023-01-06T04:43:04.554Z,-22.94
2023-01-06T04:45:36.374Z,-23.54
2023-01-06T04:48:04.478Z,-23.97
2023-01-06T04:50:32.759Z,-22.57
2023-01-06T04:53:01.181Z,-23.83
2023-01-06T04:55:31.325Z,-22.67
2023-01-06T04:58:02.764Z,-23.58
2023-01-06T05:00:33.629Z,-23.86
2023-01-06T05:03:01.975Z,-23.63
2023-01-06T05:05:29.908Z,-23.77
2023-01-06T05:07:57.669Z,-23.11
2023-01-06T05:10:25.945Z,-23.00
2023-01-06T05:12:53.782Z,-22.63
2023-01-06T05:15:21.708Z,-23.53
2023-01-06T05:17:49.958Z,-23.37
2023-01-06T05:20:17.849Z,-20.45
2023-01-06T05:22:45.677Z,-22.52
2023-01-06T05:25:16.791Z,-22.61
2023-01-06T05:27:44.681Z,-22.81
2023-01-06T05:30:13.187Z,-23.51
2023-01-06T05:32:41.453Z,-22.78
2023-01-06T05:35:09.786Z,-21.80
2023-01-06T05:37:37.625Z,-22.76
2023-01-06T05:40:06.396Z,-23.33
2023-01-06T05:42:34.270Z,-20.54
2023-01-06T05:45:05.622Z,-22.41
2023-01-06T05:47:33.981Z,-21.62
2023-01-06T05:50:01.990Z,-22.46
2023-01-06T05:52:31.049Z,-22.58
2023-01-06T05:54:59.329Z,-23.32
2023-01-06T05:57:27.223Z,-19.14
2023-01-06T05:59:58.069Z,-20.03
2023-01-06T06:02:26.850Z,-23.23
2023-01-06T06:04:55.251Z,-21.08
2023-01-06T06:07:23.195Z,-18.84
2023-01-06T06:09:51.142Z,-21.36
2023-01-06T06:12:22.398Z,-20.70
2023-01-06T06:14:50.146Z,-16.98
2023-01-06T06:17:17.893Z,-22.60
2023-01-06T06:19:46.094Z,-20.68
2023-01-06T06:22:13.859Z,-22.41
2023-01-06T06:24:41.884Z,-19.90
2023-01-06T06:27:10.259Z,-18.75
2023-01-06T06:29:38.087Z,-22.44
2023-01-06T06:32:06.205Z,-21.65
2023-01-06T06:34:34.468Z,-21.90
2023-01-06T06:37:02.343Z,-18.17
2023-01-06T06:39:30.215Z,-20.05
2023-01-06T06:41:58.470Z,-21.85
2023-01-06T06:44:26.175Z,-22.52
2023-01-06T06:46:53.965Z,-23.23
2023-01-06T06:49:22.259Z,-23.38
2023-01-06T06:51:50.219Z,-22.35
2023-01-06T06:54:18.028Z,-21.66
2023-01-06T06:56:46.315Z,-22.83
2023-01-06T06:59:14.313Z,-23.06
2023-01-06T07:01:42.328Z,-23.56
2023-01-06T07:04:10.839Z,-23.40
2023-01-06T07:06:38.943Z,-21.98
2023-01-06T07:09:07.198Z,-22.37
2023-01-06T07:11:35.722Z,-22.47
2023-01-06T07:14:03.447Z,-22.72
2023-01-06T07:16:34.083Z,-22.35
2023-01-06T07:19:02.801Z,-21.27
2023-01-06T07:21:33.728Z,-21.76
2023-01-06T07:24:01.767Z,-21.25
2023-01-06T07:26:30.271Z,-22.49
2023-01-06T07:28:58.082Z,-21.43
2023-01-06T07:31:26.118Z,-21.74
2023-01-06T07:33:57.207Z,-20.04
2023-01-06T07:36:25.026Z,-20.22
2023-01-06T07:38:55.860Z,-22.73
2023-01-06T07:41:24.795Z,-22.77
2023-01-06T07:43:53.233Z,-21.38
2023-01-06T07:46:21.408Z,-16.65
2023-01-06T07:48:49.923Z,-17.98
2023-01-06T07:51:18.874Z,-19.80
2023-01-06T07:53:47.482Z,-21.52
2023-01-06T07:56:16.602Z,-17.39
2023-01-06T07:58:45.299Z,-17.84
2023-01-06T08:01:14.894Z,-17.57
2023-01-06T08:03:43.930Z,-20.89
2023-01-06T08:06:14.990Z,-21.54
2023-01-06T08:08:43.363Z,-21.62
2023-01-06T08:11:13.550Z,-21.67
2023-01-06T08:13:42.020Z,-21.51
2023-01-06T08:16:12.233Z,-21.89
2023-01-06T08:18:43.401Z,-19.96
2023-01-06T08:21:14.202Z,-20.28
2023-01-06T08:23:43.749Z,-22.34
2023-01-06T08:26:18.964Z,-22.42
2023-01-06T08:28:51.664Z,-21.20
2023-01-06T08:31:23.381Z,-20.05
2023-01-06T08:33:53.950Z,-20.34
2023-01-06T08:36:29.916Z,-21.26
2023-01-06T08:38:59.081Z,-18.88
2023-01-06T08:41:31.459Z,-19.60
2023-01-06T08:44:05.053Z,-19.70
2023-01-06T08:46:37.007Z,-16.09
2023-01-06T08:49:05.824Z,-17.56
2023-01-06T08:51:36.006Z,-20.30
2023-01-06T08:54:09.190Z,-20.36
2023-01-06T08:56:40.146Z,-21.17
2023-01-06T08:59:08.569Z,-21.34
2023-01-06T09:01:40.366Z,-21.59
2023-01-06T09:04:12.236Z,-21.18
2023-01-06T09:06:46.445Z,-19.27
2023-01-06T09:09:18.637Z,-20.26
2023-01-06T09:11:52.497Z,-20.73
2023-01-06T09:14:26.240Z,-21.40
2023-01-06T09:16:56.242Z,-21.59
2023-01-06T09:19:30.051Z,-21.17
2023-01-06T09:22:00.959Z,-21.32
2023-01-06T09:24:33.908Z,-21.38
2023-01-06T09:27:03.778Z,-21.10
2023-01-06T09:29:34.068Z,-20.06
2023-01-06T09:32:06.463Z,-20.46
2023-01-06T09:34:38.532Z,-20.42
2023-01-06T09:37:10.774Z,-20.10
2023-01-06T09:39:44.761Z,-19.12
2023-01-06T09:42:19.810Z,-19.74
2023-01-06T09:45:13.216Z,-19.30
2023-01-06T09:47:52.033Z,-17.75
2023-01-06T09:50:33.383Z,-19.15
2023-01-06T09:53:26.548Z,-14.48
2023-01-06T09:56:02.739Z,-18.09
2023-01-06T09:58:51.161Z,-16.46
2023-01-06T10:01:31.532Z,-17.11
2023-01-06T10:04:02.959Z,-16.99
2023-01-06T10:06:44.939Z,-16.01
2023-01-06T10:09:41.657Z,-15.48
2023-01-06T10:12:18.314Z,-16.75
2023-01-06T10:15:07.537Z,-16.48
2023-01-06T10:18:13.260Z,-18.36
2023-01-06T10:20:53.595Z,-17.00
2023-01-06T10:23:51.945Z,-15.09
2023-01-06T10:26:33.077Z,-19.84
2023-01-06T10:29:13.514Z,-20.61
2023-01-06T10:31:47.647Z,-15.56
2023-01-06T10:34:29.642Z,-17.01
2023-01-06T10:37:25.499Z,-18.61
2023-01-06T10:40:15.635Z,-19.89
2023-01-06T10:43:07.974Z,-18.60
2023-01-06T10:45:50.512Z,-18.31
2023-01-06T10:48:28.101Z,-18.33
2023-01-06T10:51:00.743Z,-20.06
2023-01-06T10:53:32.765Z,-19.33
2023-01-06T10:56:06.698Z,-20.28
2023-01-06T10:58:45.756Z,-20.34
2023-01-06T11:01:21.408Z,-19.48
2023-01-06T11:04:17.347Z,-19.97
2023-01-06T11:06:51.908Z,-20.31
2023-01-06T11:09:41.677Z,-20.48
2023-01-06T11:12:21.900Z,-19.39
2023-01-06T11:15:03.671Z,-20.36
2023-01-06T11:17:37.704Z,-20.59
2023-01-06T11:20:27.988Z,-20.31
2023-01-06T11:23:21.811Z,-19.40
2023-01-06T11:26:14.179Z,-20.31
2023-01-06T11:28:49.387Z,-20.41
2023-01-06T11:31:26.947Z,-20.65
2023-01-06T11:34:01.317Z,-20.61
2023-01-06T11:36:33.814Z,-20.77
2023-01-06T11:39:13.187Z,-20.71
2023-01-06T11:41:48.550Z,-20.71
2023-01-06T11:44:39.938Z,-20.50
2023-01-06T11:47:23.332Z,-20.76
2023-01-06T11:50:02.013Z,-20.39
2023-01-06T11:52:37.313Z,-20.22
2023-01-06T11:55:13.371Z,-20.73
2023-01-06T11:58:17.786Z,-20.84
2023-01-06T12:01:07.308Z,-19.72
2023-01-06T12:03:44.839Z,-16.38
2023-01-06T12:06:37.943Z,-18.17
2023-01-06T12:09:33.539Z,-19.78
2023-01-06T12:12:12.784Z,-18.59
2023-01-06T12:14:44.275Z,-19.51
2023-01-06T12:17:46.361Z,-20.49
2023-01-06T12:20:26.641Z,-20.50
2023-01-06T12:23:05.475Z,-20.03
2023-01-06T12:25:51.478Z,-20.09
2023-01-06T12:28:44.464Z,-20.43
2023-01-06T12:31:50.431Z,-20.43
2023-01-06T12:34:38.582Z,-20.81
2023-01-06T12:37:34.360Z,-20.82
2023-01-06T12:40:09.890Z,-20.22
2023-01-06T12:43:17.657Z,-17.99
2023-01-06T12:45:59.793Z,-19.17
2023-01-06T12:48:44.273Z,-18.83
2023-01-06T12:51:22.222Z,-20.33
2023-01-06T12:53:55.550Z,-17.04
2023-01-06T12:56:59.915Z,-18.53
2023-01-06T13:00:08.608Z,-17.25
2023-01-06T13:03:00.232Z,-19.76
2023-01-06T13:05:50.261Z,-19.74
2023-01-06T13:08:32.548Z,-20.98
2023-01-06T13:11:23.526Z,-19.75
2023-01-06T13:14:27.079Z,-19.74
2023-01-06T13:17:20.648Z,-18.68
2023-01-06T13:19:56.180Z,-18.88
2023-01-06T13:22:47.026Z,-20.60
2023-01-06T13:25:54.779Z,-20.05
2023-01-06T13:29:02.172Z,-19.32
2023-01-06T13:32:02.155Z,-18.98
2023-01-06T13:34:53.664Z,-19.98
2023-01-06T13:37:37.717Z,-19.34
2023-01-06T13:40:16.105Z,-19.47
2023-01-06T13:43:02.311Z,-19.29
2023-01-06T13:45:39.414Z,-17.05
2023-01-06T13:48:28.183Z,-15.36
2023-01-06T13:51:03.585Z,-17.95
2023-01-06T13:53:40.929Z,-18.89
2023-01-06T13:56:17.495Z,-19.27
2023-01-06T13:58:54.247Z,-21.43
2023-01-06T14:01:24.968Z,-19.92
2023-01-06T14:04:28.178Z,-21.14
2023-01-06T14:06:59.402Z,-21.37
2023-01-06T14:09:37.159Z,-21.31
2023-01-06T14:12:25.246Z,-21.88
2023-01-06T14:15:25.000Z,-22.24
2023-01-06T14:17:58.604Z,-21.85
2023-01-06T14:20:42.993Z,-21.20
2023-01-06T14:23:28.964Z,-20.55
2023-01-06T14:26:03.334Z,-21.34
2023-01-06T14:28:36.025Z,-21.86
2023-01-06T14:31:39.284Z,-19.74
2023-01-06T14:34:16.302Z,-20.82
2023-01-06T14:36:48.551Z,-21.45
2023-01-06T14:39:27.869Z,-19.82
2023-01-06T14:42:30.677Z,-17.65
2023-01-06T14:45:07.545Z,-16.73
2023-01-06T14:47:54.060Z,-17.79
2023-01-06T14:50:59.174Z,-19.87
2023-01-06T14:53:37.654Z,-21.65
2023-01-06T14:56:11.595Z,-20.19
2023-01-06T14:58:42.970Z,-20.33
2023-01-06T15:01:29.733Z,-22.43
2023-01-06T15:04:10.785Z,-21.80
2023-01-06T15:06:41.143Z,-20.50
2023-01-06T15:09:21.337Z,-21.93
2023-01-06T15:11:52.055Z,-22.79
2023-01-06T15:14:30.888Z,-21.80
2023-01-06T15:17:05.129Z,-20.87
2023-01-06T15:19:42.494Z,-22.75
2023-01-06T15:22:15.911Z,-21.71
2023-01-06T15:24:45.963Z,-22.30
2023-01-06T15:27:18.267Z,-21.28
2023-01-06T15:29:55.099Z,-20.93
2023-01-06T15:32:29.066Z,-19.73
2023-01-06T15:35:03.135Z,-19.58
2023-01-06T15:37:37.347Z,-20.64
2023-01-06T15:40:08.220Z,-22.80
2023-01-06T15:42:43.141Z,-23.33
2023-01-06T15:45:39.119Z,-22.95
2023-01-06T15:48:19.440Z,-23.42
2023-01-06T15:50:56.485Z,-22.98
2023-01-06T15:53:37.248Z,-21.07
2023-01-06T15:56:23.984Z,-22.15
2023-01-06T15:58:57.942Z,-22.37
2023-01-06T16:01:27.806Z,-23.12
2023-01-06T16:04:02.371Z,-23.04
2023-01-06T16:06:37.416Z,-21.83
2023-01-06T16:09:26.187Z,-21.79
2023-01-06T16:12:12.015Z,-20.42
2023-01-06T16:14:46.677Z,-22.61
2023-01-06T16:17:36.068Z,-22.79
2023-01-06T16:20:22.556Z,-20.64
2023-01-06T16:22:57.057Z,-20.24
2023-01-06T16:25:34.933Z,-20.07
2023-01-06T16:28:08.271Z,-21.44
2023-01-06T16:30:41.576Z,-22.41
2023-01-06T16:33:41.268Z,-22.90
2023-01-06T16:36:18.012Z,-22.69
2023-01-06T16:38:50.905Z,-20.58
2023-01-06T16:41:21.561Z,-21.31
2023-01-06T16:43:53.115Z,-23.28
2023-01-06T16:46:28.195Z,-23.95
2023-01-06T16:49:10.719Z,-23.75
2023-01-06T16:51:48.899Z,-21.48
2023-01-06T16:54:23.149Z,-23.19
2023-01-06T16:56:54.269Z,-23.38
2023-01-06T16:59:26.508Z,-23.55
2023-01-06T17:01:56.466Z,-22.98
2023-01-06T17:04:29.115Z,-23.34
2023-01-06T17:06:58.936Z,-23.09
2023-01-06T17:09:30.501Z,-23.16
2023-01-06T17:12:03.855Z,-23.82
2023-01-06T17:14:38.832Z,-22.28
2023-01-06T17:17:23.241Z,-23.64
2023-01-06T17:19:56.201Z,-18.48
2023-01-06T17:22:31.187Z,-22.93
2023-01-06T17:25:15.394Z,-20.55
2023-01-06T17:27:47.875Z,-23.48
2023-01-06T17:30:20.286Z,-22.93
2023-01-06T17:32:52.929Z,-21.45
2023-01-06T17:35:34.624Z,-20.62
2023-01-06T17:38:25.649Z,-21.88
2023-01-06T17:40:57.169Z,-15.92
2023-01-06T17:43:39.103Z,-18.76
2023-01-06T17:46:36.933Z,-19.34
2023-01-06T17:49:23.405Z,-15.57
2023-01-06T17:51:52.401Z,-18.50
2023-01-06T17:54:46.164Z,-21.40
2023-01-06T17:57:23.965Z,-15.15
2023-01-06T17:59:58.101Z,-16.83
2023-01-06T18:02:49.010Z,-18.43
2023-01-06T18:05:20.491Z,-20.62
2023-01-06T18:08:12.764Z,-18.46
2023-01-06T18:11:09.365Z,-19.44
2023-01-06T18:13:44.055Z,-20.15
2023-01-06T18:16:22.093Z,-14.28
2023-01-06T18:18:52.303Z,-13.69
2023-01-06T18:21:39.362Z,-13.05
2023-01-06T18:24:42.584Z,-14.39
2023-01-06T18:27:29.616Z,-13.03
2023-01-06T18:30:16.282Z,-13.81
2023-01-06T18:32:51.879Z,-12.68
2023-01-06T18:35:30.544Z,-12.62
2023-01-06T18:38:02.730Z,-13.86
2023-01-06T18:40:36.834Z,-15.37
2023-01-06T18:43:25.828Z,-16.42
2023-01-06T18:46:19.924Z,-14.45
2023-01-06T18:48:49.196Z,-15.48
2023-01-06T18:51:30.444Z,-18.08
2023-01-06T18:54:23.348Z,-19.44
2023-01-06T18:57:11.638Z,-14.47
2023-01-06T19:00:57.003Z,-17.52
2023-01-06T19:03:36.872Z,-16.12
2023-01-06T19:06:12.456Z,-15.19
2023-01-06T19:08:43.632Z,-16.41
2023-01-06T19:11:21.866Z,-15.78
2023-01-06T19:13:55.944Z,-13.97
2023-01-06T19:16:49.071Z,-17.78
2023-01-06T19:19:24.314Z,-19.91
2023-01-06T19:22:09.523Z,-17.00
2023-01-06T19:25:06.875Z,-15.58
2023-01-06T19:27:50.809Z,-15.29
2023-01-06T19:30:43.257Z,-13.27
2023-01-06T19:33:37.252Z,-14.15
2023-01-06T19:36:06.252Z,-14.79
2023-01-06T19:38:43.534Z,-13.62
2023-01-06T19:41:27.478Z,-14.66
2023-01-06T19:44:20.032Z,-15.28
2023-01-06T19:46:50.763Z,-13.55
2023-01-06T19:49:26.423Z,-17.04
2023-01-06T19:51:57.486Z,-17.15
2023-01-06T19:54:30.094Z,-19.86
2023-01-06T19:56:59.608Z,-19.92
2023-01-06T19:59:34.775Z,-21.71
2023-01-06T20:02:26.519Z,-21.33
2023-01-06T20:04:58.756Z,-18.53
2023-01-06T20:07:33.528Z,-19.84
2023-01-06T20:10:04.899Z,-18.86
2023-01-06T20:12:38.014Z,-17.85
2023-01-06T20:15:09.812Z,-16.78
2023-01-06T20:17:37.964Z,-17.12
2023-01-06T20:20:09.085Z,-16.49
2023-01-06T20:22:40.598Z,-17.85
2023-01-06T20:25:13.759Z,-21.89
2023-01-06T20:27:42.066Z,-21.94
2023-01-06T20:30:15.828Z,-22.35
2023-01-06T20:32:45.811Z,-22.67
2023-01-06T20:35:15.970Z,-21.30
2023-01-06T20:37:45.186Z,-17.96
2023-01-06T20:40:14.838Z,-17.75
2023-01-06T20:42:44.439Z,-20.08
2023-01-06T20:45:13.885Z,-17.66
2023-01-06T20:47:44.226Z,-19.92
2023-01-06T20:50:15.652Z,-18.59
2023-01-06T20:52:48.727Z,-18.12
2023-01-06T20:55:19.010Z,-23.30
2023-01-06T20:57:49.399Z,-22.26
2023-01-06T21:00:19.490Z,-22.14
2023-01-06T21:02:47.974Z,-22.34
2023-01-06T21:05:16.632Z,-23.59
2023-01-06T21:07:48.740Z,-24.19
2023-01-06T21:10:16.770Z,-23.94
2023-01-06T21:12:46.335Z,-23.48
2023-01-06T21:15:15.213Z,-21.47
2023-01-06T21:17:43.272Z,-22.93
2023-01-06T21:20:12.215Z,-23.12
2023-01-06T21:22:40.005Z,-23.61
2023-01-06T21:25:08.152Z,-24.00
2023-01-06T21:27:36.419Z,-24.41
2023-01-06T21:30:04.936Z,-24.40
2023-01-06T21:32:32.935Z,-24.73
2023-01-06T21:35:01.626Z,-24.51
2023-01-06T21:37:31.275Z,-24.76
2023-01-06T21:39:59.278Z,-24.59
2023-01-06T21:42:46.359Z,-25.05
2023-01-06T21:45:14.274Z,-24.78
2023-01-06T21:47:42.589Z,-24.57
2023-01-06T21:50:10.878Z,-24.23
2023-01-06T21:52:38.808Z,-25.09
2023-01-06T21:55:07.510Z,-23.65
2023-01-06T21:57:36.483Z,-23.04
2023-01-06T22:00:08.566Z,-24.27
2023-01-06T22:02:41.050Z,-23.71
2023-01-06T22:05:09.836Z,-23.77
2023-01-06T22:07:45.052Z,-21.52
2023-01-06T22:10:15.616Z,-24.38
2023-01-06T22:12:45.972Z,-24.33
2023-01-06T22:15:15.318Z,-23.32
2023-01-06T22:17:43.304Z,-23.54
2023-01-06T22:20:15.164Z,-22.40
2023-01-06T22:22:44.057Z,-23.50
2023-01-06T22:25:11.843Z,-24.00
2023-01-06T22:27:39.691Z,-23.35
2023-01-06T22:30:10.292Z,-20.63
2023-01-06T22:32:47.455Z,-23.01
2023-01-06T22:35:17.388Z,-24.19
2023-01-06T22:37:45.794Z,-24.45
2023-01-06T22:40:15.253Z,-23.68
2023-01-06T22:42:44.444Z,-23.15
2023-01-06T22:45:13.223Z,-23.24
2023-01-06T22:47:41.468Z,-24.36
2023-01-06T22:50:10.496Z,-23.00
2023-01-06T22:52:38.298Z,-21.12
2023-01-06T22:55:09.816Z,-18.97
2023-01-06T22:57:38.020Z,-21.46
2023-01-06T23:00:14.147Z,-22.35
2023-01-06T23:02:45.473Z,-22.73
2023-01-06T23:05:17.456Z,-21.22
2023-01-06T23:07:46.046Z,-18.83
2023-01-06T23:10:15.405Z,-18.96
2023-01-06T23:12:45.621Z,-19.73
2023-01-06T23:15:14.023Z,-17.93
2023-01-06T23:17:41.818Z,-16.31
2023-01-06T23:20:10.380Z,-20.55
2023-01-06T23:22:38.640Z,-18.85
2023-01-06T23:25:07.061Z,-18.57
2023-01-06T23:27:38.721Z,-19.68
2023-01-06T23:30:07.686Z,-19.64
2023-01-06T23:32:35.478Z,-17.91
2023-01-06T23:35:03.511Z,-20.18
2023-01-06T23:37:31.898Z,-19.42
2023-01-06T23:40:00.819Z,-21.51
2023-01-06T23:42:30.287Z,-21.24
2023-01-06T23:44:58.954Z,-17.80
2023-01-06T23:47:30.811Z,-18.71
2023-01-06T23:49:58.956Z,-18.61
2023-01-06T23:52:27.667Z,-16.66
2023-01-06T23:54:58.358Z,-17.57
2023-01-06T23:57:26.418Z,-16.92
2023-01-06T23:59:54.371Z,-19.23
